sensor_id;sensor_type;location;lat;lon;timestamp;P1;durP1;ratioP1;P2;durP2;ratioP2
3726;SDS011;1879;45.876;12.300;2023-01-19T00:02:20;26.47;;;23.67;;
3726;SDS011;1879;45.876;12.300;2023-01-19T00:04:47;24.67;;;22.00;;
3726;SDS011;1879;45.876;12.300;2023-01-19T00:07:14;27.87;;;22.60;;
3726;SDS011;1879;45.876;12.300;2023-01-19T00:09:41;25.43;;;22.20;;
3726;SDS011;1879;45.876;12.300;2023-01-19T00:12:08;19.80;;;13.80;;
3726;SDS011;1879;45.876;12.300;2023-01-19T00:14:35;17.40;;;15.50;;
3726;SDS011;1879;45.876;12.300;2023-01-19T00:17:02;12.80;;;11.50;;
3726;SDS011;1879;45.876;12.300;2023-01-19T00:19:30;13.13;;;11.80;;
3726;SDS011;1879;45.876;12.300;2023-01-19T00:21:57;12.17;;;10.33;;
3726;SDS011;1879;45.876;12.300;2023-01-19T00:24:24;10.77;;;9.70;;
3726;SDS011;1879;45.876;12.300;2023-01-19T00:26:51;16.20;;;13.60;;
3726;SDS011;1879;45.876;12.300;2023-01-19T00:29:18;16.93;;;14.80;;
3726;SDS011;1879;45.876;12.300;2023-01-19T00:31:45;20.80;;;16.80;;
3726;SDS011;1879;45.876;12.300;2023-01-19T00:34:12;18.37;;;16.57;;
3726;SDS011;1879;45.876;12.300;2023-01-19T00:36:40;21.40;;;17.00;;
3726;SDS011;1879;45.876;12.300;2023-01-19T00:39:08;17.23;;;15.43;;
3726;SDS011;1879;45.876;12.300;2023-01-19T00:41:34;16.03;;;14.30;;
3726;SDS011;1879;45.876;12.300;2023-01-19T00:44:19;17.67;;;14.30;;
3726;SDS011;1879;45.876;12.300;2023-01-19T00:46:46;15.77;;;14.20;;
3726;SDS011;1879;45.876;12.300;2023-01-19T00:49:13;17.40;;;15.47;;
3726;SDS011;1879;45.876;12.300;2023-01-19T00:51:41;17.53;;;14.70;;
3726;SDS011;1879;45.876;12.300;2023-01-19T00:54:08;12.80;;;11.60;;
3726;SDS011;1879;45.876;12.300;2023-01-19T00:56:35;13.97;;;11.50;;
3726;SDS011;1879;45.876;12.300;2023-01-19T00:59:02;11.97;;;10.70;;
3726;SDS011;1879;45.876;12.300;2023-01-19T01:01:29;12.00;;;10.70;;
3726;SDS011;1879;45.876;12.300;2023-01-19T01:03:56;10.53;;;9.40;;
3726;SDS011;1879;45.876;12.300;2023-01-19T01:06:23;11.13;;;10.03;;
3726;SDS011;1879;45.876;12.300;2023-01-19T01:08:51;10.00;;;8.97;;
3726;SDS011;1879;45.876;12.300;2023-01-19T01:11:18;14.50;;;13.10;;
3726;SDS011;1879;45.876;12.300;2023-01-19T01:13:45;15.47;;;13.13;;
3726;SDS011;1879;45.876;12.300;2023-01-19T01:16:13;14.47;;;13.10;;
3726;SDS011;1879;45.876;12.300;2023-01-19T01:18:40;14.57;;;12.80;;
3726;SDS011;1879;45.876;12.300;2023-01-19T01:21:07;14.37;;;12.13;;
3726;SDS011;1879;45.876;12.300;2023-01-19T01:23:37;14.43;;;12.80;;
3726;SDS011;1879;45.876;12.300;2023-01-19T01:26:05;14.07;;;12.67;;
3726;SDS011;1879;45.876;12.300;2023-01-19T01:28:32;15.47;;;13.40;;
3726;SDS011;1879;45.876;12.300;2023-01-19T01:30:59;14.00;;;12.67;;
3726;SDS011;1879;45.876;12.300;2023-01-19T01:33:26;14.80;;;13.40;;
3726;SDS011;1879;45.876;12.300;2023-01-19T01:35:53;15.23;;;13.53;;
3726;SDS011;1879;45.876;12.300;2023-01-19T01:38:19;14.80;;;13.37;;
3726;SDS011;1879;45.876;12.300;2023-01-19T01:40:46;15.80;;;14.20;;
3726;SDS011;1879;45.876;12.300;2023-01-19T01:43:15;15.37;;;13.87;;
3726;SDS011;1879;45.876;12.300;2023-01-19T01:45:44;14.63;;;13.00;;
3726;SDS011;1879;45.876;12.300;2023-01-19T01:48:12;14.47;;;11.70;;
3726;SDS011;1879;45.876;12.300;2023-01-19T01:50:43;14.20;;;12.00;;
3726;SDS011;1879;45.876;12.300;2023-01-19T01:53:27;13.90;;;11.73;;
3726;SDS011;1879;45.876;12.300;2023-01-19T01:55:57;12.83;;;11.60;;
3726;SDS011;1879;45.876;12.300;2023-01-19T01:58:27;13.33;;;12.00;;
3726;SDS011;1879;45.876;12.300;2023-01-19T02:00:55;12.30;;;11.10;;
3726;SDS011;1879;45.876;12.300;2023-01-19T02:03:39;13.33;;;11.70;;
3726;SDS011;1879;45.876;12.300;2023-01-19T02:06:06;15.40;;;10.87;;
3726;SDS011;1879;45.876;12.300;2023-01-19T02:08:36;13.13;;;11.73;;
3726;SDS011;1879;45.876;12.300;2023-01-19T02:11:23;11.00;;;9.90;;
3726;SDS011;1879;45.876;12.300;2023-01-19T02:14:09;12.50;;;11.20;;
3726;SDS011;1879;45.876;12.300;2023-01-19T02:16:36;10.00;;;9.03;;
3726;SDS011;1879;45.876;12.300;2023-01-19T02:19:04;10.47;;;9.33;;
3726;SDS011;1879;45.876;12.300;2023-01-19T02:21:34;10.60;;;9.50;;
3726;SDS011;1879;45.876;12.300;2023-01-19T02:24:08;9.23;;;8.40;;
3726;SDS011;1879;45.876;12.300;2023-01-19T02:26:37;8.93;;;8.03;;
3726;SDS011;1879;45.876;12.300;2023-01-19T02:29:07;10.20;;;8.10;;
3726;SDS011;1879;45.876;12.300;2023-01-19T02:31:36;8.70;;;7.80;;
3726;SDS011;1879;45.876;12.300;2023-01-19T02:34:05;9.70;;;7.80;;
3726;SDS011;1879;45.876;12.300;2023-01-19T02:36:34;7.33;;;6.73;;
3726;SDS011;1879;45.876;12.300;2023-01-19T02:39:05;7.47;;;6.77;;
3726;SDS011;1879;45.876;12.300;2023-01-19T02:41:37;8.43;;;7.50;;
3726;SDS011;1879;45.876;12.300;2023-01-19T02:44:07;8.03;;;7.23;;
3726;SDS011;1879;45.876;12.300;2023-01-19T02:46:36;9.47;;;8.00;;
3726;SDS011;1879;45.876;12.300;2023-01-19T02:49:05;9.40;;;7.47;;
3726;SDS011;1879;45.876;12.300;2023-01-19T02:51:32;9.23;;;7.73;;
3726;SDS011;1879;45.876;12.300;2023-01-19T02:54:13;7.50;;;6.30;;
3726;SDS011;1879;45.876;12.300;2023-01-19T02:56:51;6.47;;;5.87;;
3726;SDS011;1879;45.876;12.300;2023-01-19T02:59:30;7.80;;;6.90;;
3726;SDS011;1879;45.876;12.300;2023-01-19T03:02:17;7.57;;;6.83;;
3726;SDS011;1879;45.876;12.300;2023-01-19T03:04:58;7.73;;;6.57;;
3726;SDS011;1879;45.876;12.300;2023-01-19T03:07:35;8.23;;;7.27;;
3726;SDS011;1879;45.876;12.300;2023-01-19T03:10:16;8.93;;;6.80;;
3726;SDS011;1879;45.876;12.300;2023-01-19T03:12:51;7.93;;;6.77;;
3726;SDS011;1879;45.876;12.300;2023-01-19T03:15:24;7.07;;;6.37;;
3726;SDS011;1879;45.876;12.300;2023-01-19T03:17:57;8.00;;;7.20;;
3726;SDS011;1879;45.876;12.300;2023-01-19T03:20:26;7.50;;;6.70;;
3726;SDS011;1879;45.876;12.300;2023-01-19T03:22:54;7.77;;;6.97;;
3726;SDS011;1879;45.876;12.300;2023-01-19T03:25:26;7.37;;;6.67;;
3726;SDS011;1879;45.876;12.300;2023-01-19T03:27:56;7.70;;;6.97;;
3726;SDS011;1879;45.876;12.300;2023-01-19T03:30:25;8.83;;;7.13;;
3726;SDS011;1879;45.876;12.300;2023-01-19T03:32:54;8.20;;;7.30;;
3726;SDS011;1879;45.876;12.300;2023-01-19T03:35:27;9.20;;;7.47;;
3726;SDS011;1879;45.876;12.300;2023-01-19T03:37:56;7.33;;;6.63;;
3726;SDS011;1879;45.876;12.300;2023-01-19T03:40:28;7.27;;;6.57;;
3726;SDS011;1879;45.876;12.300;2023-01-19T03:42:57;6.90;;;6.20;;
3726;SDS011;1879;45.876;12.300;2023-01-19T03:45:27;7.10;;;6.40;;
3726;SDS011;1879;45.876;12.300;2023-01-19T03:47:59;7.23;;;6.47;;
3726;SDS011;1879;45.876;12.300;2023-01-19T03:50:28;7.60;;;6.90;;
3726;SDS011;1879;45.876;12.300;2023-01-19T03:52:59;6.63;;;6.03;;
3726;SDS011;1879;45.876;12.300;2023-01-19T03:55:31;8.63;;;7.83;;
3726;SDS011;1879;45.876;12.300;2023-01-19T03:58:00;8.33;;;7.53;;
3726;SDS011;1879;45.876;12.300;2023-01-19T04:00:27;7.83;;;7.07;;
3726;SDS011;1879;45.876;12.300;2023-01-19T04:02:54;8.00;;;7.40;;
3726;SDS011;1879;45.876;12.300;2023-01-19T04:05:21;7.60;;;6.90;;
3726;SDS011;1879;45.876;12.300;2023-01-19T04:07:48;7.70;;;7.00;;
3726;SDS011;1879;45.876;12.300;2023-01-19T04:10:15;8.00;;;7.20;;
3726;SDS011;1879;45.876;12.300;2023-01-19T04:12:44;8.30;;;7.60;;
3726;SDS011;1879;45.876;12.300;2023-01-19T04:15:11;9.40;;;8.30;;
3726;SDS011;1879;45.876;12.300;2023-01-19T04:17:39;8.37;;;7.43;;
3726;SDS011;1879;45.876;12.300;2023-01-19T04:20:06;8.93;;;7.93;;
3726;SDS011;1879;45.876;12.300;2023-01-19T04:22:34;9.10;;;8.20;;
3726;SDS011;1879;45.876;12.300;2023-01-19T04:25:03;9.63;;;8.63;;
3726;SDS011;1879;45.876;12.300;2023-01-19T04:27:30;7.83;;;6.80;;
3726;SDS011;1879;45.876;12.300;2023-01-19T04:29:59;9.00;;;7.93;;
3726;SDS011;1879;45.876;12.300;2023-01-19T04:32:26;7.60;;;6.90;;
3726;SDS011;1879;45.876;12.300;2023-01-19T04:34:53;7.13;;;6.53;;
3726;SDS011;1879;45.876;12.300;2023-01-19T04:37:20;7.83;;;6.37;;
3726;SDS011;1879;45.876;12.300;2023-01-19T04:39:47;7.57;;;6.80;;
3726;SDS011;1879;45.876;12.300;2023-01-19T04:42:14;7.70;;;6.97;;
3726;SDS011;1879;45.876;12.300;2023-01-19T04:44:42;7.63;;;6.50;;
3726;SDS011;1879;45.876;12.300;2023-01-19T04:47:10;7.57;;;6.87;;
3726;SDS011;1879;45.876;12.300;2023-01-19T04:49:37;7.13;;;6.40;;
3726;SDS011;1879;45.876;12.300;2023-01-19T04:52:05;8.47;;;6.30;;
3726;SDS011;1879;45.876;12.300;2023-01-19T04:54:32;7.70;;;6.60;;
3726;SDS011;1879;45.876;12.300;2023-01-19T04:56:59;7.43;;;6.73;;
3726;SDS011;1879;45.876;12.300;2023-01-19T04:59:26;7.40;;;6.80;;
3726;SDS011;1879;45.876;12.300;2023-01-19T05:01:53;6.20;;;5.47;;
3726;SDS011;1879;45.876;12.300;2023-01-19T05:04:22;6.57;;;5.93;;
3726;SDS011;1879;45.876;12.300;2023-01-19T05:06:50;7.40;;;6.70;;
3726;SDS011;1879;45.876;12.300;2023-01-19T05:09:18;6.47;;;5.87;;
3726;SDS011;1879;45.876;12.300;2023-01-19T05:11:45;7.30;;;6.30;;
3726;SDS011;1879;45.876;12.300;2023-01-19T05:14:12;5.90;;;5.37;;
3726;SDS011;1879;45.876;12.300;2023-01-19T05:16:39;6.77;;;5.60;;
3726;SDS011;1879;45.876;12.300;2023-01-19T05:19:06;6.10;;;5.50;;
3726;SDS011;1879;45.876;12.300;2023-01-19T05:21:34;6.23;;;5.73;;
3726;SDS011;1879;45.876;12.300;2023-01-19T05:24:01;7.23;;;5.50;;
3726;SDS011;1879;45.876;12.300;2023-01-19T05:26:28;6.13;;;5.63;;
3726;SDS011;1879;45.876;12.300;2023-01-19T05:28:55;5.43;;;5.03;;
3726;SDS011;1879;45.876;12.300;2023-01-19T05:31:22;6.67;;;5.43;;
3726;SDS011;1879;45.876;12.300;2023-01-19T05:33:49;6.27;;;5.43;;
3726;SDS011;1879;45.876;12.300;2023-01-19T05:36:15;6.53;;;5.73;;
3726;SDS011;1879;45.876;12.300;2023-01-19T05:38:44;5.90;;;5.30;;
3726;SDS011;1879;45.876;12.300;2023-01-19T05:41:11;6.30;;;5.70;;
3726;SDS011;1879;45.876;12.300;2023-01-19T05:43:38;7.00;;;5.97;;
3726;SDS011;1879;45.876;12.300;2023-01-19T05:46:05;7.07;;;6.40;;
3726;SDS011;1879;45.876;12.300;2023-01-19T05:48:32;7.80;;;5.63;;
3726;SDS011;1879;45.876;12.300;2023-01-19T05:50:59;6.73;;;6.10;;
3726;SDS011;1879;45.876;12.300;2023-01-19T05:53:27;8.37;;;6.40;;
3726;SDS011;1879;45.876;12.300;2023-01-19T05:55:59;7.23;;;6.53;;
3726;SDS011;1879;45.876;12.300;2023-01-19T05:58:26;7.40;;;6.53;;
3726;SDS011;1879;45.876;12.300;2023-01-19T06:00:53;6.90;;;6.20;;
3726;SDS011;1879;45.876;12.300;2023-01-19T06:03:20;6.80;;;6.20;;
3726;SDS011;1879;45.876;12.300;2023-01-19T06:05:47;7.50;;;6.30;;
3726;SDS011;1879;45.876;12.300;2023-01-19T06:08:14;7.93;;;7.13;;
3726;SDS011;1879;45.876;12.300;2023-01-19T06:10:41;8.27;;;6.80;;
3726;SDS011;1879;45.876;12.300;2023-01-19T06:13:09;7.73;;;7.03;;
3726;SDS011;1879;45.876;12.300;2023-01-19T06:15:36;6.57;;;5.97;;
3726;SDS011;1879;45.876;12.300;2023-01-19T06:18:04;6.27;;;5.77;;
3726;SDS011;1879;45.876;12.300;2023-01-19T06:20:31;8.20;;;6.27;;
3726;SDS011;1879;45.876;12.300;2023-01-19T06:22:58;6.87;;;6.27;;
3726;SDS011;1879;45.876;12.300;2023-01-19T06:25:24;9.93;;;5.90;;
3726;SDS011;1879;45.876;12.300;2023-01-19T06:27:51;6.57;;;5.80;;
3726;SDS011;1879;45.876;12.300;2023-01-19T06:30:20;7.17;;;6.47;;
3726;SDS011;1879;45.876;12.300;2023-01-19T06:32:47;8.00;;;7.20;;
3726;SDS011;1879;45.876;12.300;2023-01-19T06:35:14;7.87;;;7.10;;
3726;SDS011;1879;45.876;12.300;2023-01-19T06:37:42;10.47;;;7.37;;
3726;SDS011;1879;45.876;12.300;2023-01-19T06:40:09;8.13;;;7.43;;
3726;SDS011;1879;45.876;12.300;2023-01-19T06:42:37;7.80;;;7.10;;
3726;SDS011;1879;45.876;12.300;2023-01-19T06:45:04;8.10;;;7.30;;
3726;SDS011;1879;45.876;12.300;2023-01-19T06:47:35;8.10;;;7.30;;
3726;SDS011;1879;45.876;12.300;2023-01-19T06:50:02;8.30;;;7.50;;
3726;SDS011;1879;45.876;12.300;2023-01-19T06:52:29;7.77;;;7.00;;
3726;SDS011;1879;45.876;12.300;2023-01-19T06:54:56;7.70;;;7.00;;
3726;SDS011;1879;45.876;12.300;2023-01-19T06:57:23;7.30;;;6.60;;
3726;SDS011;1879;45.876;12.300;2023-01-19T06:59:50;6.63;;;5.93;;
3726;SDS011;1879;45.876;12.300;2023-01-19T07:02:16;5.10;;;4.60;;
3726;SDS011;1879;45.876;12.300;2023-01-19T07:04:48;5.50;;;5.00;;
3726;SDS011;1879;45.876;12.300;2023-01-19T07:07:15;5.37;;;4.93;;
3726;SDS011;1879;45.876;12.300;2023-01-19T07:09:42;4.83;;;4.37;;
3726;SDS011;1879;45.876;12.300;2023-01-19T07:12:09;4.17;;;3.87;;
3726;SDS011;1879;45.876;12.300;2023-01-19T07:14:36;3.30;;;3.07;;
3726;SDS011;1879;45.876;12.300;2023-01-19T07:17:03;4.17;;;3.23;;
3726;SDS011;1879;45.876;12.300;2023-01-19T07:19:29;2.83;;;2.63;;
3726;SDS011;1879;45.876;12.300;2023-01-19T07:22:00;2.80;;;2.53;;
3726;SDS011;1879;45.876;12.300;2023-01-19T07:24:27;3.93;;;2.77;;
3726;SDS011;1879;45.876;12.300;2023-01-19T07:26:55;2.53;;;2.33;;
3726;SDS011;1879;45.876;12.300;2023-01-19T07:29:22;2.70;;;2.30;;
3726;SDS011;1879;45.876;12.300;2023-01-19T07:31:49;3.50;;;2.97;;
3726;SDS011;1879;45.876;12.300;2023-01-19T07:34:18;2.83;;;2.40;;
3726;SDS011;1879;45.876;12.300;2023-01-19T07:36:45;2.80;;;2.50;;
3726;SDS011;1879;45.876;12.300;2023-01-19T07:39:14;2.37;;;2.17;;
3726;SDS011;1879;45.876;12.300;2023-01-19T07:41:41;2.60;;;2.40;;
3726;SDS011;1879;45.876;12.300;2023-01-19T07:44:08;2.53;;;2.30;;
3726;SDS011;1879;45.876;12.300;2023-01-19T07:46:35;2.17;;;2.00;;
3726;SDS011;1879;45.876;12.300;2023-01-19T07:49:02;2.10;;;2.00;;
3726;SDS011;1879;45.876;12.300;2023-01-19T07:51:29;1.90;;;1.80;;
3726;SDS011;1879;45.876;12.300;2023-01-19T07:53:56;1.87;;;1.77;;
3726;SDS011;1879;45.876;12.300;2023-01-19T07:56:24;2.00;;;1.90;;
3726;SDS011;1879;45.876;12.300;2023-01-19T07:58:51;2.20;;;2.00;;
3726;SDS011;1879;45.876;12.300;2023-01-19T08:01:18;2.17;;;1.97;;
3726;SDS011;1879;45.876;12.300;2023-01-19T08:03:46;2.30;;;1.80;;
3726;SDS011;1879;45.876;12.300;2023-01-19T08:06:15;2.60;;;2.20;;
3726;SDS011;1879;45.876;12.300;2023-01-19T08:08:45;2.20;;;2.00;;
3726;SDS011;1879;45.876;12.300;2023-01-19T08:11:12;2.83;;;2.63;;
3726;SDS011;1879;45.876;12.300;2023-01-19T08:13:41;4.03;;;3.73;;
3726;SDS011;1879;45.876;12.300;2023-01-19T08:16:08;2.93;;;2.73;;
3726;SDS011;1879;45.876;12.300;2023-01-19T08:18:35;3.83;;;3.40;;
3726;SDS011;1879;45.876;12.300;2023-01-19T08:21:02;3.97;;;2.90;;
3726;SDS011;1879;45.876;12.300;2023-01-19T08:23:29;3.10;;;2.80;;
3726;SDS011;1879;45.876;12.300;2023-01-19T08:25:56;4.23;;;2.60;;
3726;SDS011;1879;45.876;12.300;2023-01-19T08:28:23;3.20;;;2.90;;
3726;SDS011;1879;45.876;12.300;2023-01-19T08:30:51;2.80;;;2.60;;
3726;SDS011;1879;45.876;12.300;2023-01-19T08:33:19;4.13;;;3.47;;
3726;SDS011;1879;45.876;12.300;2023-01-19T08:35:47;3.60;;;3.30;;
3726;SDS011;1879;45.876;12.300;2023-01-19T08:38:15;3.90;;;3.60;;
3726;SDS011;1879;45.876;12.300;2023-01-19T08:40:43;5.00;;;4.20;;
3726;SDS011;1879;45.876;12.300;2023-01-19T08:43:10;4.30;;;3.90;;
3726;SDS011;1879;45.876;12.300;2023-01-19T08:45:39;3.87;;;3.47;;
3726;SDS011;1879;45.876;12.300;2023-01-19T08:48:13;3.87;;;3.53;;
3726;SDS011;1879;45.876;12.300;2023-01-19T08:50:41;3.50;;;3.20;;
3726;SDS011;1879;45.876;12.300;2023-01-19T08:53:10;3.70;;;3.40;;
3726;SDS011;1879;45.876;12.300;2023-01-19T08:55:37;5.03;;;3.33;;
3726;SDS011;1879;45.876;12.300;2023-01-19T08:58:05;4.40;;;4.00;;
3726;SDS011;1879;45.876;12.300;2023-01-19T09:00:33;4.30;;;3.90;;
3726;SDS011;1879;45.876;12.300;2023-01-19T09:03:02;3.17;;;2.93;;
3726;SDS011;1879;45.876;12.300;2023-01-19T09:05:30;4.17;;;3.07;;
3726;SDS011;1879;45.876;12.300;2023-01-19T09:07:59;2.90;;;2.70;;
3726;SDS011;1879;45.876;12.300;2023-01-19T09:10:27;4.20;;;3.50;;
3726;SDS011;1879;45.876;12.300;2023-01-19T09:12:55;5.00;;;4.60;;
3726;SDS011;1879;45.876;12.300;2023-01-19T09:15:22;5.80;;;5.30;;
3726;SDS011;1879;45.876;12.300;2023-01-19T09:17:50;6.23;;;5.50;;
3726;SDS011;1879;45.876;12.300;2023-01-19T09:20:17;6.10;;;4.47;;
3726;SDS011;1879;45.876;12.300;2023-01-19T09:22:46;4.97;;;4.47;;
3726;SDS011;1879;45.876;12.300;2023-01-19T09:25:12;4.80;;;4.10;;
3726;SDS011;1879;45.876;12.300;2023-01-19T09:27:40;4.50;;;4.10;;
3726;SDS011;1879;45.876;12.300;2023-01-19T09:30:07;4.13;;;3.73;;
3726;SDS011;1879;45.876;12.300;2023-01-19T09:32:35;4.30;;;3.90;;
3726;SDS011;1879;45.876;12.300;2023-01-19T09:35:02;7.77;;;4.10;;
3726;SDS011;1879;45.876;12.300;2023-01-19T09:37:29;4.23;;;3.40;;
3726;SDS011;1879;45.876;12.300;2023-01-19T09:39:58;4.90;;;3.57;;
3726;SDS011;1879;45.876;12.300;2023-01-19T09:42:26;4.10;;;3.70;;
3726;SDS011;1879;45.876;12.300;2023-01-19T09:45:01;4.10;;;3.70;;
3726;SDS011;1879;45.876;12.300;2023-01-19T09:47:32;3.30;;;3.00;;
3726;SDS011;1879;45.876;12.300;2023-01-19T09:50:02;4.37;;;3.57;;
3726;SDS011;1879;45.876;12.300;2023-01-19T09:52:39;4.23;;;3.20;;
3726;SDS011;1879;45.876;12.300;2023-01-19T09:55:15;3.60;;;3.30;;
3726;SDS011;1879;45.876;12.300;2023-01-19T09:57:45;4.00;;;3.70;;
3726;SDS011;1879;45.876;12.300;2023-01-19T10:00:13;3.90;;;3.50;;
3726;SDS011;1879;45.876;12.300;2023-01-19T10:02:41;5.57;;;4.03;;
3726;SDS011;1879;45.876;12.300;2023-01-19T10:05:19;4.50;;;4.00;;
3726;SDS011;1879;45.876;12.300;2023-01-19T10:07:53;4.43;;;4.03;;
3726;SDS011;1879;45.876;12.300;2023-01-19T10:10:31;5.20;;;4.70;;
3726;SDS011;1879;45.876;12.300;2023-01-19T10:15:50;6.07;;;4.13;;
3726;SDS011;1879;45.876;12.300;2023-01-19T10:18:25;4.53;;;4.13;;
3726;SDS011;1879;45.876;12.300;2023-01-19T10:21:00;3.93;;;3.57;;
3726;SDS011;1879;45.876;12.300;2023-01-19T10:23:34;2.40;;;2.20;;
3726;SDS011;1879;45.876;12.300;2023-01-19T10:26:09;2.87;;;2.13;;
3726;SDS011;1879;45.876;12.300;2023-01-19T10:28:40;2.33;;;2.13;;
3726;SDS011;1879;45.876;12.300;2023-01-19T10:31:08;3.20;;;2.83;;
3726;SDS011;1879;45.876;12.300;2023-01-19T10:33:37;3.10;;;2.20;;
3726;SDS011;1879;45.876;12.300;2023-01-19T10:36:05;4.30;;;2.93;;
3726;SDS011;1879;45.876;12.300;2023-01-19T10:38:41;2.73;;;2.53;;
3726;SDS011;1879;45.876;12.300;2023-01-19T10:41:12;2.93;;;1.93;;
3726;SDS011;1879;45.876;12.300;2023-01-19T10:43:43;1.93;;;1.80;;
3726;SDS011;1879;45.876;12.300;2023-01-19T10:46:16;6.50;;;2.17;;
3726;SDS011;1879;45.876;12.300;2023-01-19T10:48:52;2.20;;;2.00;;
3726;SDS011;1879;45.876;12.300;2023-01-19T10:51:20;2.00;;;1.90;;
3726;SDS011;1879;45.876;12.300;2023-01-19T10:53:57;2.23;;;1.97;;
3726;SDS011;1879;45.876;12.300;2023-01-19T10:56:33;1.97;;;1.87;;
3726;SDS011;1879;45.876;12.300;2023-01-19T10:59:03;3.00;;;2.00;;
3726;SDS011;1879;45.876;12.300;2023-01-19T11:01:32;2.20;;;2.10;;
3726;SDS011;1879;45.876;12.300;2023-01-19T11:04:19;2.20;;;2.00;;
3726;SDS011;1879;45.876;12.300;2023-01-19T11:06:56;2.40;;;2.20;;
3726;SDS011;1879;45.876;12.300;2023-01-19T11:09:41;2.00;;;1.70;;
3726;SDS011;1879;45.876;12.300;2023-01-19T11:12:19;2.37;;;1.80;;
3726;SDS011;1879;45.876;12.300;2023-01-19T11:14:49;2.03;;;1.90;;
3726;SDS011;1879;45.876;12.300;2023-01-19T11:17:21;2.80;;;2.60;;
3726;SDS011;1879;45.876;12.300;2023-01-19T11:19:57;3.90;;;2.37;;
3726;SDS011;1879;45.876;12.300;2023-01-19T11:22:27;4.13;;;2.03;;
3726;SDS011;1879;45.876;12.300;2023-01-19T11:24:59;1.60;;;1.50;;
3726;SDS011;1879;45.876;12.300;2023-01-19T11:27:28;3.00;;;2.00;;
3726;SDS011;1879;45.876;12.300;2023-01-19T11:30:02;2.07;;;1.80;;
3726;SDS011;1879;45.876;12.300;2023-01-19T11:32:34;2.43;;;2.23;;
3726;SDS011;1879;45.876;12.300;2023-01-19T11:35:03;1.80;;;1.70;;
3726;SDS011;1879;45.876;12.300;2023-01-19T11:38:12;1.83;;;1.73;;
3726;SDS011;1879;45.876;12.300;2023-01-19T11:40:45;2.27;;;1.80;;
3726;SDS011;1879;45.876;12.300;2023-01-19T11:43:19;2.43;;;2.23;;
3726;SDS011;1879;45.876;12.300;2023-01-19T11:45:48;2.10;;;1.90;;
3726;SDS011;1879;45.876;12.300;2023-01-19T11:48:17;3.60;;;2.40;;
3726;SDS011;1879;45.876;12.300;2023-01-19T11:50:50;3.10;;;1.83;;
3726;SDS011;1879;45.876;12.300;2023-01-19T11:53:18;2.07;;;1.87;;
3726;SDS011;1879;45.876;12.300;2023-01-19T11:55:51;1.93;;;1.73;;
3726;SDS011;1879;45.876;12.300;2023-01-19T11:58:22;2.03;;;1.83;;
3726;SDS011;1879;45.876;12.300;2023-01-19T12:00:51;2.37;;;2.17;;
3726;SDS011;1879;45.876;12.300;2023-01-19T12:03:26;2.40;;;2.20;;
3726;SDS011;1879;45.876;12.300;2023-01-19T12:05:57;2.20;;;2.00;;
3726;SDS011;1879;45.876;12.300;2023-01-19T12:08:29;1.60;;;1.50;;
3726;SDS011;1879;45.876;12.300;2023-01-19T12:11:01;1.97;;;1.77;;
3726;SDS011;1879;45.876;12.300;2023-01-19T12:13:31;4.90;;;1.80;;
3726;SDS011;1879;45.876;12.300;2023-01-19T12:16:00;1.70;;;1.60;;
3726;SDS011;1879;45.876;12.300;2023-01-19T12:18:32;2.60;;;2.20;;
3726;SDS011;1879;45.876;12.300;2023-01-19T12:21:04;1.87;;;1.77;;
3726;SDS011;1879;45.876;12.300;2023-01-19T12:23:36;1.83;;;1.73;;
3726;SDS011;1879;45.876;12.300;2023-01-19T12:26:24;1.90;;;1.80;;
3726;SDS011;1879;45.876;12.300;2023-01-19T12:28:59;2.20;;;1.80;;
3726;SDS011;1879;45.876;12.300;2023-01-19T12:31:32;3.10;;;2.80;;
3726;SDS011;1879;45.876;12.300;2023-01-19T12:36:58;2.00;;;1.90;;
3726;SDS011;1879;45.876;12.300;2023-01-19T12:39:27;2.00;;;1.80;;
3726;SDS011;1879;45.876;12.300;2023-01-19T12:42:06;1.67;;;1.57;;
3726;SDS011;1879;45.876;12.300;2023-01-19T12:44:40;1.83;;;1.73;;
3726;SDS011;1879;45.876;12.300;2023-01-19T12:47:18;2.77;;;2.03;;
3726;SDS011;1879;45.876;12.300;2023-01-19T12:49:48;3.00;;;2.00;;
3726;SDS011;1879;45.876;12.300;2023-01-19T12:55:06;2.33;;;2.13;;
3726;SDS011;1879;45.876;12.300;2023-01-19T12:57:47;1.93;;;1.83;;
3726;SDS011;1879;45.876;12.300;2023-01-19T13:06:11;2.20;;;2.10;;
3726;SDS011;1879;45.876;12.300;2023-01-19T13:08:54;4.13;;;2.00;;
3726;SDS011;1879;45.876;12.300;2023-01-19T13:11:22;2.30;;;2.10;;
3726;SDS011;1879;45.876;12.300;2023-01-19T13:16:59;2.20;;;2.00;;
3726;SDS011;1879;45.876;12.300;2023-01-19T13:19:34;4.10;;;2.10;;
3726;SDS011;1879;45.876;12.300;2023-01-19T13:25:31;2.60;;;2.40;;
3726;SDS011;1879;45.876;12.300;2023-01-19T13:28:00;2.90;;;2.63;;
3726;SDS011;1879;45.876;12.300;2023-01-19T13:30:34;3.43;;;2.20;;
3726;SDS011;1879;45.876;12.300;2023-01-19T13:33:05;3.00;;;2.60;;
3726;SDS011;1879;45.876;12.300;2023-01-19T13:35:46;2.83;;;2.63;;
3726;SDS011;1879;45.876;12.300;2023-01-19T13:38:18;3.00;;;2.70;;
3726;SDS011;1879;45.876;12.300;2023-01-19T13:40:46;2.70;;;2.23;;
3726;SDS011;1879;45.876;12.300;2023-01-19T13:43:14;4.53;;;2.50;;
3726;SDS011;1879;45.876;12.300;2023-01-19T13:45:45;3.10;;;2.90;;
3726;SDS011;1879;45.876;12.300;2023-01-19T13:48:16;2.40;;;2.27;;
3726;SDS011;1879;45.876;12.300;2023-01-19T13:50:55;2.50;;;2.30;;
3726;SDS011;1879;45.876;12.300;2023-01-19T13:53:23;2.47;;;2.27;;
3726;SDS011;1879;45.876;12.300;2023-01-19T13:56:04;2.80;;;2.60;;
3726;SDS011;1879;45.876;12.300;2023-01-19T13:58:41;2.43;;;2.23;;
3726;SDS011;1879;45.876;12.300;2023-01-19T14:01:18;4.63;;;2.70;;
3726;SDS011;1879;45.876;12.300;2023-01-19T14:03:47;2.67;;;2.47;;
3726;SDS011;1879;45.876;12.300;2023-01-19T14:06:22;2.90;;;2.70;;
3726;SDS011;1879;45.876;12.300;2023-01-19T14:09:12;3.00;;;2.80;;
3726;SDS011;1879;45.876;12.300;2023-01-19T14:11:41;3.20;;;3.00;;
3726;SDS011;1879;45.876;12.300;2023-01-19T14:14:22;3.10;;;2.90;;
3726;SDS011;1879;45.876;12.300;2023-01-19T14:16:50;4.00;;;3.70;;
3726;SDS011;1879;45.876;12.300;2023-01-19T14:19:18;3.67;;;3.37;;
3726;SDS011;1879;45.876;12.300;2023-01-19T14:21:45;3.83;;;3.53;;
3726;SDS011;1879;45.876;12.300;2023-01-19T14:24:23;3.33;;;3.07;;
3726;SDS011;1879;45.876;12.300;2023-01-19T14:26:54;3.40;;;3.20;;
3726;SDS011;1879;45.876;12.300;2023-01-19T14:29:34;4.03;;;3.73;;
3726;SDS011;1879;45.876;12.300;2023-01-19T14:32:04;3.90;;;3.60;;
3726;SDS011;1879;45.876;12.300;2023-01-19T14:34:38;4.07;;;3.10;;
3726;SDS011;1879;45.876;12.300;2023-01-19T14:37:16;3.40;;;3.10;;
3726;SDS011;1879;45.876;12.300;2023-01-19T14:39:50;5.00;;;4.17;;
3726;SDS011;1879;45.876;12.300;2023-01-19T14:42:25;3.97;;;3.67;;
3726;SDS011;1879;45.876;12.300;2023-01-19T14:44:54;4.23;;;3.93;;
3726;SDS011;1879;45.876;12.300;2023-01-19T14:47:26;3.83;;;3.50;;
3726;SDS011;1879;45.876;12.300;2023-01-19T14:50:04;3.40;;;3.20;;
3726;SDS011;1879;45.876;12.300;2023-01-19T14:52:35;4.10;;;3.67;;
3726;SDS011;1879;45.876;12.300;2023-01-19T14:55:04;3.87;;;3.57;;
3726;SDS011;1879;45.876;12.300;2023-01-19T14:57:33;3.67;;;3.43;;
3726;SDS011;1879;45.876;12.300;2023-01-19T15:00:05;3.60;;;3.30;;
3726;SDS011;1879;45.876;12.300;2023-01-19T15:02:39;7.03;;;3.50;;
3726;SDS011;1879;45.876;12.300;2023-01-19T15:05:08;3.33;;;2.83;;
3726;SDS011;1879;45.876;12.300;2023-01-19T15:07:35;3.27;;;3.07;;
3726;SDS011;1879;45.876;12.300;2023-01-19T15:10:04;4.10;;;3.70;;
3726;SDS011;1879;45.876;12.300;2023-01-19T15:12:39;3.90;;;3.50;;
3726;SDS011;1879;45.876;12.300;2023-01-19T15:15:08;3.90;;;3.47;;
3726;SDS011;1879;45.876;12.300;2023-01-19T15:17:39;3.60;;;3.30;;
3726;SDS011;1879;45.876;12.300;2023-01-19T15:20:11;3.43;;;3.00;;
3726;SDS011;1879;45.876;12.300;2023-01-19T15:22:40;3.30;;;3.10;;
3726;SDS011;1879;45.876;12.300;2023-01-19T15:25:10;3.60;;;3.30;;
3726;SDS011;1879;45.876;12.300;2023-01-19T15:27:38;3.13;;;2.93;;
3726;SDS011;1879;45.876;12.300;2023-01-19T15:30:11;3.27;;;3.07;;
3726;SDS011;1879;45.876;12.300;2023-01-19T15:32:39;3.60;;;3.30;;
3726;SDS011;1879;45.876;12.300;2023-01-19T15:35:12;4.37;;;3.97;;
3726;SDS011;1879;45.876;12.300;2023-01-19T15:37:40;3.70;;;3.40;;